createdAt,value
2018-07-01T00:01:44.000Z,100453
2018-07-01T00:03:44.000Z,100456
2018-07-01T00:07:44.000Z,100464
2018-07-01T00:09:30.000Z,100462
2018-07-01T00:11:30.000Z,100461
2018-07-01T00:13:30.000Z,100453
2018-07-01T00:14:30.000Z,100455
2018-07-01T00:16:30.000Z,100452
2018-07-01T00:17:30.000Z,100455
2018-07-01T00:19:30.000Z,100451
2018-07-01T00:21:30.000Z,100448
2018-07-01T00:22:30.000Z,100448
2018-07-01T00:23:30.000Z,100447
2018-07-01T00:25:30.000Z,100445
2018-07-01T00:27:30.000Z,100443
2018-07-01T00:29:30.000Z,100450
2018-07-01T00:30:30.000Z,100447
2018-07-01T00:32:15.000Z,100445
2018-07-01T00:33:30.000Z,100452
2018-07-01T00:35:30.000Z,100453
2018-07-01T00:36:30.000Z,100451
2018-07-01T00:38:30.000Z,100455
2018-07-01T00:39:30.000Z,100455
2018-07-01T00:41:30.000Z,100458
2018-07-01T00:43:15.000Z,100453
2018-07-01T00:44:30.000Z,100452
2018-07-01T00:46:15.000Z,100451
2018-07-01T00:47:30.000Z,100448
2018-07-01T00:49:30.000Z,100457
2018-07-01T00:51:15.000Z,100452
2018-07-01T00:52:30.000Z,100458
2018-07-01T00:53:30.000Z,100452
2018-07-01T00:55:30.000Z,100453
2018-07-01T00:57:30.000Z,100450
2018-07-01T00:59:15.000Z,100457
2018-07-01T01:00:30.000Z,100455
2018-07-01T01:02:30.000Z,100455
2018-07-01T01:04:15.000Z,100452
2018-07-01T01:05:30.000Z,100453
2018-07-01T01:07:30.000Z,100460
2018-07-01T01:08:30.000Z,100458
2018-07-01T01:10:30.000Z,100452
2018-07-01T01:12:30.000Z,100455
2018-07-01T01:14:30.000Z,100458
2018-07-01T01:15:30.000Z,100461
2018-07-01T01:17:30.000Z,100461
2018-07-01T01:19:30.000Z,100458
2018-07-01T01:20:30.000Z,100464
2018-07-01T01:22:30.000Z,100463
2018-07-01T01:24:30.000Z,100456
2018-07-01T01:26:30.000Z,100457
2018-07-01T01:28:15.000Z,100454
2018-07-01T01:29:30.000Z,100452
2018-07-01T01:31:30.000Z,100455
2018-07-01T01:33:30.000Z,100458
2018-07-01T01:35:30.000Z,100460
2018-07-01T01:37:30.000Z,100462
2018-07-01T01:39:30.000Z,100462
2018-07-01T01:41:30.000Z,100462
2018-07-01T01:43:30.000Z,100460
2018-07-01T01:44:30.000Z,100463
2018-07-01T01:45:30.000Z,100466
2018-07-01T01:47:30.000Z,100462
2018-07-01T01:49:30.000Z,100467
2018-07-01T01:51:30.000Z,100456
2018-07-01T01:53:30.000Z,100460
2018-07-01T01:55:30.000Z,100464
2018-07-01T01:57:30.000Z,100465
2018-07-01T01:58:30.000Z,100466
2018-07-01T02:00:30.000Z,100469
2018-07-01T02:01:30.000Z,100465
2018-07-01T02:02:30.000Z,100465
2018-07-01T02:04:30.000Z,100467
2018-07-01T02:05:30.000Z,100470
2018-07-01T02:07:30.000Z,100463
2018-07-01T02:09:15.000Z,100470
2018-07-01T02:10:30.000Z,100468
2018-07-01T02:12:30.000Z,100465
2018-07-01T02:14:30.000Z,100467
2018-07-01T02:16:30.000Z,100463
2018-07-01T02:18:30.000Z,100465
2018-07-01T02:19:30.000Z,100470
2018-07-01T02:21:29.000Z,100468
2018-07-01T02:22:29.000Z,100466
2018-07-01T02:24:29.000Z,100474
2018-07-01T02:25:29.000Z,100472
2018-07-01T02:27:29.000Z,100470
2018-07-01T02:29:14.000Z,100465
2018-07-01T02:30:29.000Z,100468
2018-07-01T02:32:29.000Z,100468
2018-07-01T02:33:29.000Z,100475
2018-07-01T02:35:29.000Z,100473
2018-07-01T02:36:29.000Z,100474
2018-07-01T02:37:29.000Z,100477
2018-07-01T02:39:29.000Z,100481
2018-07-01T02:41:29.000Z,100479
2018-07-01T02:42:29.000Z,100476
2018-07-01T02:44:29.000Z,100477
2018-07-01T02:46:29.000Z,100476
2018-07-01T02:48:29.000Z,100472
2018-07-01T02:50:29.000Z,100470
2018-07-01T02:51:29.000Z,100472
2018-07-01T02:53:29.000Z,100472
2018-07-01T02:54:29.000Z,100473
2018-07-01T02:56:29.000Z,100478
2018-07-01T02:58:29.000Z,100475
2018-07-01T03:00:29.000Z,100476
2018-07-01T03:02:29.000Z,100482
2018-07-01T03:04:29.000Z,100476
2018-07-01T03:05:29.000Z,100487
2018-07-01T03:07:29.000Z,100482
2018-07-01T03:08:29.000Z,100488
2018-07-01T03:10:29.000Z,100481
2018-07-01T03:12:14.000Z,100487
2018-07-01T03:13:29.000Z,100483
2018-07-01T03:15:29.000Z,100482
2018-07-01T03:16:29.000Z,100491
2018-07-01T03:18:29.000Z,100491
2018-07-01T03:19:29.000Z,100493
2018-07-01T03:21:29.000Z,100492
2018-07-01T03:23:14.000Z,100490
2018-07-01T03:24:30.000Z,100492
2018-07-01T03:25:30.000Z,100492
2018-07-01T03:27:30.000Z,100490
2018-07-01T03:29:30.000Z,100488
2018-07-01T03:31:15.000Z,100494
2018-07-01T03:32:30.000Z,100496
2018-07-01T03:33:30.000Z,100497
2018-07-01T03:35:15.000Z,100501
2018-07-01T03:36:30.000Z,100500
2018-07-01T03:37:30.000Z,100503
2018-07-01T03:39:30.000Z,100497
2018-07-01T03:41:15.000Z,100498
2018-07-01T03:42:30.000Z,100502
2018-07-01T03:43:30.000Z,100501
2018-07-01T03:44:30.000Z,100496
2018-07-01T03:45:30.000Z,100505
2018-07-01T03:47:30.000Z,100500
2018-07-01T03:48:30.000Z,100505
2018-07-01T03:50:30.000Z,100504
2018-07-01T03:52:30.000Z,100512
2018-07-01T03:54:30.000Z,100508
2018-07-01T03:55:30.000Z,100511
2018-07-01T03:57:30.000Z,100514
2018-07-01T03:59:30.000Z,100508
2018-07-01T04:00:30.000Z,100512
2018-07-01T04:01:30.000Z,100517
2018-07-01T04:03:30.000Z,100511
2018-07-01T04:05:30.000Z,100510
2018-07-01T04:07:30.000Z,100510
2018-07-01T04:08:30.000Z,100510
2018-07-01T04:10:30.000Z,100517
2018-07-01T04:12:30.000Z,100522
2018-07-01T04:14:30.000Z,100522
2018-07-01T04:16:30.000Z,100520
2018-07-01T04:18:30.000Z,100520
2018-07-01T04:19:30.000Z,100519
2018-07-01T04:20:30.000Z,100520
2018-07-01T04:22:30.000Z,100520
2018-07-01T04:24:15.000Z,100513
2018-07-01T04:25:30.000Z,100517
2018-07-01T04:26:30.000Z,100520
2018-07-01T04:28:30.000Z,100516
2018-07-01T04:30:30.000Z,100516
2018-07-01T04:31:30.000Z,100526
2018-07-01T04:33:30.000Z,100518
2018-07-01T04:34:30.000Z,100519
2018-07-01T04:35:30.000Z,100523
2018-07-01T04:37:30.000Z,100524
2018-07-01T04:39:30.000Z,100520
2018-07-01T04:41:30.000Z,100528
2018-07-01T04:43:30.000Z,100533
2018-07-01T04:44:30.000Z,100530
2018-07-01T04:46:30.000Z,100535
2018-07-01T04:48:30.000Z,100540
2018-07-01T04:50:30.000Z,100539
2018-07-01T04:51:30.000Z,100540
2018-07-01T04:52:30.000Z,100541
2018-07-01T04:54:30.000Z,100539
2018-07-01T04:56:30.000Z,100541
2018-07-01T04:57:30.000Z,100543
2018-07-01T04:59:15.000Z,100538
2018-07-01T05:00:30.000Z,100536
2018-07-01T05:02:15.000Z,100541
2018-07-01T05:03:30.000Z,100539
2018-07-01T05:04:30.000Z,100542
2018-07-01T05:06:30.000Z,100542
2018-07-01T05:08:30.000Z,100547
2018-07-01T05:09:30.000Z,100541
2018-07-01T05:11:30.000Z,100547
2018-07-01T05:12:30.000Z,100547
2018-07-01T05:13:30.000Z,100544
2018-07-01T05:14:30.000Z,100544
2018-07-01T05:16:30.000Z,100546
2018-07-01T05:17:30.000Z,100547
2018-07-01T05:19:30.000Z,100547
2018-07-01T05:21:30.000Z,100551
2018-07-01T05:22:30.000Z,100555
2018-07-01T05:23:30.000Z,100553
2018-07-01T05:25:30.000Z,100556
2018-07-01T05:27:30.000Z,100555
2018-07-01T05:29:30.000Z,100553
2018-07-01T05:30:30.000Z,100557
2018-07-01T05:32:29.000Z,100557
2018-07-01T05:33:29.000Z,100554
2018-07-01T05:35:14.000Z,100552
2018-07-01T05:36:29.000Z,100558
2018-07-01T05:38:29.000Z,100552
2018-07-01T05:40:29.000Z,100554
2018-07-01T05:42:14.000Z,100554
2018-07-01T05:43:29.000Z,100556
2018-07-01T05:45:29.000Z,100556
2018-07-01T05:47:29.000Z,100560
2018-07-01T05:49:14.000Z,100555
2018-07-01T05:50:29.000Z,100556
2018-07-01T05:52:29.000Z,100553
2018-07-01T05:54:29.000Z,100565
2018-07-01T05:55:29.000Z,100563
2018-07-01T05:56:29.000Z,100564
2018-07-01T05:58:29.000Z,100565
2018-07-01T06:00:29.000Z,100572
2018-07-01T06:02:29.000Z,100566
2018-07-01T06:04:29.000Z,100566
2018-07-01T06:06:29.000Z,100564
2018-07-01T06:08:29.000Z,100566
2018-07-01T06:09:29.000Z,100566
2018-07-01T06:11:29.000Z,100569
2018-07-01T06:13:29.000Z,100567
2018-07-01T06:15:29.000Z,100565
2018-07-01T06:17:29.000Z,100576
2018-07-01T06:19:29.000Z,100571
2018-07-01T06:21:29.000Z,100569
2018-07-01T06:23:29.000Z,100575
2018-07-01T06:24:29.000Z,100563
2018-07-01T06:26:29.000Z,100566
2018-07-01T06:28:29.000Z,100565
2018-07-01T06:30:29.000Z,100565
2018-07-01T06:32:29.000Z,100579
2018-07-01T06:34:29.000Z,100575
2018-07-01T06:36:29.000Z,100574
2018-07-01T06:37:59.000Z,100589
2018-07-01T06:39:29.000Z,100575
2018-07-01T06:40:29.000Z,100570
2018-07-01T06:41:29.000Z,100567
2018-07-01T06:43:29.000Z,100569
2018-07-01T06:45:14.000Z,100567
2018-07-01T06:46:29.000Z,100574
2018-07-01T06:47:29.000Z,100578
2018-07-01T06:49:29.000Z,100569
2018-07-01T06:50:29.000Z,100564
2018-07-01T06:52:29.000Z,100569
2018-07-01T06:54:29.000Z,100568
2018-07-01T06:56:29.000Z,100569
2018-07-01T06:57:29.000Z,100569
2018-07-01T06:59:29.000Z,100561
2018-07-01T07:00:29.000Z,100571
2018-07-01T07:02:29.000Z,100560
2018-07-01T07:04:29.000Z,100560
2018-07-01T07:05:29.000Z,100567
2018-07-01T07:07:29.000Z,100562
2018-07-01T07:09:29.000Z,100556
2018-07-01T07:11:29.000Z,100564
2018-07-01T07:13:29.000Z,100564
2018-07-01T07:15:29.000Z,100560
2018-07-01T07:16:59.000Z,100572
2018-07-01T07:18:29.000Z,100561
2018-07-01T07:20:29.000Z,100565
2018-07-01T07:21:29.000Z,100569
2018-07-01T07:22:29.000Z,100578
2018-07-01T07:24:14.000Z,100569
2018-07-01T07:25:29.000Z,100559
2018-07-01T07:27:29.000Z,100572
2018-07-01T07:29:29.000Z,100569
2018-07-01T07:31:29.000Z,100571
2018-07-01T07:33:14.000Z,100567
2018-07-01T07:34:29.000Z,100577
2018-07-01T07:36:29.000Z,100577
2018-07-01T07:37:29.000Z,100575
2018-07-01T07:39:29.000Z,100576
2018-07-01T07:41:29.000Z,100576
2018-07-01T07:43:29.000Z,100577
2018-07-01T07:45:29.000Z,100575
2018-07-01T07:46:29.000Z,100581
2018-07-01T07:48:29.000Z,100579
2018-07-01T07:49:29.000Z,100569
2018-07-01T07:51:29.000Z,100579
2018-07-01T07:52:29.000Z,100573
2018-07-01T07:54:29.000Z,100568
2018-07-01T07:56:30.000Z,100566
2018-07-01T07:58:29.000Z,100564
2018-07-01T08:00:29.000Z,100579
2018-07-01T08:02:29.000Z,100568
2018-07-01T08:03:29.000Z,100573
2018-07-01T08:05:30.000Z,100579
2018-07-01T08:07:29.000Z,100582
2018-07-01T08:09:29.000Z,100584
2018-07-01T08:10:29.000Z,100577
2018-07-01T08:11:29.000Z,100576
2018-07-01T08:13:14.000Z,100573
2018-07-01T08:14:29.000Z,100566
2018-07-01T08:15:29.000Z,100570
2018-07-01T08:17:29.000Z,100567
2018-07-01T08:19:29.000Z,100571
2018-07-01T08:20:29.000Z,100567
2018-07-01T08:21:29.000Z,100576
2018-07-01T08:23:29.000Z,100573
2018-07-01T08:25:14.000Z,100571
2018-07-01T08:26:29.000Z,100573
2018-07-01T08:28:29.000Z,100568
2018-07-01T08:30:14.000Z,100571
2018-07-01T08:31:29.000Z,100579
2018-07-01T08:33:29.000Z,100582
2018-07-01T08:35:14.000Z,100575
2018-07-01T08:36:29.000Z,100588
2018-07-01T08:38:29.000Z,100584
2018-07-01T08:40:29.000Z,100585
2018-07-01T08:42:30.000Z,100587
2018-07-01T08:44:30.000Z,100582
2018-07-01T08:45:30.000Z,100577
2018-07-01T08:46:30.000Z,100576
2018-07-01T08:48:30.000Z,100587
2018-07-01T08:50:30.000Z,100577
2018-07-01T08:52:30.000Z,100575
2018-07-01T08:53:30.000Z,100568
2018-07-01T08:55:30.000Z,100584
2018-07-01T08:57:30.000Z,100568
2018-07-01T08:58:30.000Z,100573
2018-07-01T09:00:30.000Z,100579
2018-07-01T09:02:15.000Z,100573
2018-07-01T09:03:30.000Z,100577
2018-07-01T09:04:30.000Z,100566
2018-07-01T09:06:30.000Z,100575
2018-07-01T09:07:30.000Z,100573
2018-07-01T09:09:30.000Z,100576
2018-07-01T09:11:30.000Z,100572
2018-07-01T09:13:30.000Z,100570
2018-07-01T09:15:15.000Z,100574
2018-07-01T09:16:30.000Z,100571
2018-07-01T09:18:30.000Z,100570
2018-07-01T09:20:30.000Z,100568
2018-07-01T09:21:30.000Z,100569
2018-07-01T09:23:30.000Z,100569
2018-07-01T09:25:30.000Z,100580
2018-07-01T09:27:30.000Z,100579
2018-07-01T09:28:30.000Z,100582
2018-07-01T09:29:30.000Z,100579
2018-07-01T09:31:30.000Z,100575
2018-07-01T09:32:30.000Z,100569
2018-07-01T09:33:30.000Z,100580
2018-07-01T09:34:30.000Z,100579
2018-07-01T09:36:30.000Z,100566
2018-07-01T09:37:30.000Z,100570
2018-07-01T09:39:30.000Z,100585
2018-07-01T09:41:30.000Z,100579
2018-07-01T09:42:30.000Z,100577
2018-07-01T09:43:30.000Z,100572
2018-07-01T09:45:30.000Z,100560
2018-07-01T09:47:30.000Z,100569
2018-07-01T09:49:30.000Z,100569
2018-07-01T09:51:30.000Z,100564
2018-07-01T09:52:30.000Z,100571
2018-07-01T09:54:30.000Z,100573
2018-07-01T09:55:30.000Z,100570
2018-07-01T09:57:30.000Z,100568
2018-07-01T09:59:30.000Z,100572
2018-07-01T10:01:14.000Z,100574
2018-07-01T10:02:30.000Z,100561
2018-07-01T10:04:14.000Z,100565
2018-07-01T10:05:30.000Z,100565
2018-07-01T10:07:30.000Z,100561
2018-07-01T10:09:30.000Z,100574
2018-07-01T10:10:59.000Z,100561
2018-07-01T10:12:30.000Z,100560
2018-07-01T10:14:30.000Z,100560
2018-07-01T10:16:30.000Z,100556
2018-07-01T10:18:30.000Z,100551
2018-07-01T10:20:30.000Z,100551
2018-07-01T10:22:30.000Z,100555
2018-07-01T10:23:30.000Z,100561
2018-07-01T10:25:30.000Z,100563
2018-07-01T10:27:30.000Z,100561
2018-07-01T10:29:30.000Z,100560
2018-07-01T10:31:30.000Z,100545
2018-07-01T10:32:30.000Z,100553
2018-07-01T10:34:30.000Z,100551
2018-07-01T10:35:30.000Z,100540
2018-07-01T10:39:30.000Z,100542
2018-07-01T10:41:16.000Z,100537
2018-07-01T10:43:16.000Z,100540
2018-07-01T10:44:16.000Z,100540
2018-07-01T10:46:16.000Z,100547
2018-07-01T10:48:16.000Z,100539
2018-07-01T10:50:16.000Z,100546
2018-07-01T10:51:16.000Z,100542
2018-07-01T10:53:16.000Z,100553
2018-07-01T10:54:16.000Z,100545
2018-07-01T10:56:01.000Z,100538
2018-07-01T10:57:16.000Z,100539
2018-07-01T10:59:16.000Z,100534
2018-07-01T11:00:16.000Z,100548
2018-07-01T11:02:01.000Z,100524
2018-07-01T11:03:16.000Z,100540
2018-07-01T11:05:16.000Z,100528
2018-07-01T11:07:01.000Z,100538
2018-07-01T11:08:16.000Z,100528
2018-07-01T11:09:45.000Z,100519
2018-07-01T11:11:16.000Z,100520
2018-07-01T11:13:16.000Z,100531
2018-07-01T11:15:16.000Z,100524
2018-07-01T11:17:16.000Z,100524
2018-07-01T11:18:16.000Z,100527
2018-07-01T11:20:16.000Z,100525
2018-07-01T11:22:01.000Z,100524
2018-07-01T11:23:16.000Z,100515
2018-07-01T11:25:16.000Z,100510
2018-07-01T11:27:16.000Z,100519
2018-07-01T11:29:16.000Z,100526
2018-07-01T11:31:16.000Z,100523
2018-07-01T11:33:01.000Z,100523
2018-07-01T11:34:16.000Z,100521
2018-07-01T11:36:01.000Z,100514
2018-07-01T11:37:16.000Z,100509
2018-07-01T11:38:16.000Z,100520
2018-07-01T11:40:16.000Z,100510
2018-07-01T11:41:16.000Z,100520
2018-07-01T11:43:16.000Z,100517
2018-07-01T11:45:16.000Z,100504
2018-07-01T11:47:01.000Z,100519
2018-07-01T11:48:16.000Z,100516
2018-07-01T11:49:16.000Z,100511
2018-07-01T11:51:16.000Z,100518
2018-07-01T11:53:16.000Z,100517
2018-07-01T11:54:16.000Z,100520
2018-07-01T11:56:16.000Z,100511
2018-07-01T11:58:16.000Z,100511
2018-07-01T11:59:16.000Z,100504
2018-07-01T12:01:16.000Z,100505
2018-07-01T12:02:16.000Z,100511
2018-07-01T12:04:16.000Z,100498
2018-07-01T12:05:16.000Z,100500
2018-07-01T12:07:16.000Z,100509
2018-07-01T12:09:01.000Z,100507
2018-07-01T12:10:16.000Z,100511
2018-07-01T12:12:16.000Z,100509
2018-07-01T12:13:16.000Z,100513
2018-07-01T12:15:16.000Z,100497
2018-07-01T12:17:16.000Z,100490
2018-07-01T12:19:01.000Z,100486
2018-07-01T12:20:01.000Z,100494
2018-07-01T12:21:16.000Z,100495
2018-07-01T12:22:16.000Z,100487
2018-07-01T12:24:01.000Z,100483
2018-07-01T12:25:16.000Z,100477
2018-07-01T12:27:16.000Z,100479
2018-07-01T12:29:16.000Z,100486
2018-07-01T12:31:16.000Z,100485
2018-07-01T12:33:16.000Z,100485
2018-07-01T12:35:16.000Z,100475
2018-07-01T12:37:16.000Z,100483
2018-07-01T12:39:16.000Z,100486
2018-07-01T12:41:16.000Z,100471
2018-07-01T12:43:16.000Z,100460
2018-07-01T12:45:16.000Z,100464
2018-07-01T12:46:16.000Z,100464
2018-07-01T12:48:16.000Z,100463
2018-07-01T12:50:16.000Z,100472
2018-07-01T12:52:16.000Z,100466
2018-07-01T12:54:16.000Z,100473
2018-07-01T12:56:15.000Z,100468
2018-07-01T12:58:00.000Z,100465
2018-07-01T13:00:15.000Z,100454
2018-07-01T13:02:15.000Z,100458
2018-07-01T13:03:15.000Z,100467
2018-07-01T13:05:15.000Z,100458
2018-07-01T13:07:15.000Z,100455
2018-07-01T13:09:15.000Z,100444
2018-07-01T13:11:15.000Z,100460
2018-07-01T13:13:15.000Z,100456
2018-07-01T13:15:15.000Z,100449
2018-07-01T13:16:15.000Z,100443
2018-07-01T13:18:15.000Z,100452
2018-07-01T13:20:00.000Z,100440
2018-07-01T13:21:15.000Z,100429
2018-07-01T13:22:15.000Z,100432
2018-07-01T13:24:15.000Z,100432
2018-07-01T13:26:15.000Z,100441
2018-07-01T13:28:15.000Z,100432
2018-07-01T13:30:15.000Z,100431
2018-07-01T13:32:15.000Z,100428
2018-07-01T13:33:15.000Z,100421
2018-07-01T13:35:15.000Z,100424
2018-07-01T13:37:15.000Z,100420
2018-07-01T13:39:15.000Z,100431
2018-07-01T13:41:15.000Z,100422
2018-07-01T13:42:15.000Z,100420
2018-07-01T13:43:15.000Z,100422
2018-07-01T13:44:15.000Z,100423
2018-07-01T13:46:15.000Z,100415
2018-07-01T13:48:15.000Z,100416
2018-07-01T13:50:15.000Z,100420
2018-07-01T13:51:15.000Z,100407
2018-07-01T13:53:00.000Z,100406
2018-07-01T13:54:15.000Z,100417
2018-07-01T13:55:15.000Z,100414
2018-07-01T13:57:00.000Z,100409
2018-07-01T13:58:15.000Z,100415
2018-07-01T14:00:00.000Z,100411
2018-07-01T14:01:16.000Z,100415
2018-07-01T14:03:16.000Z,100401
2018-07-01T14:04:16.000Z,100407
2018-07-01T14:06:16.000Z,100400
2018-07-01T14:08:16.000Z,100404
2018-07-01T14:09:16.000Z,100404
2018-07-01T14:11:16.000Z,100388
2018-07-01T14:13:16.000Z,100385
2018-07-01T14:15:16.000Z,100390
2018-07-01T14:17:16.000Z,100389
2018-07-01T14:18:16.000Z,100388
2018-07-01T14:19:16.000Z,100376
2018-07-01T14:21:16.000Z,100379
2018-07-01T14:23:00.000Z,100380
2018-07-01T14:24:16.000Z,100372
2018-07-01T14:26:16.000Z,100366
2018-07-01T14:28:16.000Z,100369
2018-07-01T14:30:16.000Z,100387
2018-07-01T14:32:16.000Z,100378
2018-07-01T14:34:16.000Z,100377
2018-07-01T14:35:16.000Z,100366
2018-07-01T14:36:16.000Z,100364
2018-07-01T14:37:16.000Z,100380
2018-07-01T14:39:16.000Z,100374
2018-07-01T14:41:00.000Z,100365
2018-07-01T14:42:16.000Z,100370
2018-07-01T14:43:16.000Z,100359
2018-07-01T14:45:16.000Z,100363
2018-07-01T14:46:16.000Z,100349
2018-07-01T14:48:16.000Z,100356
2018-07-01T14:50:16.000Z,100359
2018-07-01T14:51:16.000Z,100356
2018-07-01T14:53:16.000Z,100362
2018-07-01T14:54:16.000Z,100360
2018-07-01T14:56:00.000Z,100347
2018-07-01T14:57:16.000Z,100365
2018-07-01T14:58:16.000Z,100356
2018-07-01T15:00:00.000Z,100355
2018-07-01T15:01:16.000Z,100343
2018-07-01T15:02:16.000Z,100346
2018-07-01T15:04:01.000Z,100344
2018-07-01T15:05:01.000Z,100349
2018-07-01T15:07:16.000Z,100353
2018-07-01T15:08:16.000Z,100353
2018-07-01T15:10:16.000Z,100345
2018-07-01T15:11:16.000Z,100348
2018-07-01T15:13:01.000Z,100275
2018-07-01T15:14:16.000Z,100353
2018-07-01T15:16:16.000Z,100355
2018-07-01T15:18:16.000Z,100344
2018-07-01T15:20:16.000Z,100357
2018-07-01T15:21:16.000Z,100361
2018-07-01T15:23:01.000Z,100357
2018-07-01T15:24:16.000Z,100361
2018-07-01T15:25:16.000Z,100349
2018-07-01T15:26:16.000Z,100355
2018-07-01T15:28:16.000Z,100347
2018-07-01T15:30:16.000Z,100348
2018-07-01T15:32:01.000Z,100348
2018-07-01T15:33:16.000Z,100359
2018-07-01T15:34:16.000Z,100347
2018-07-01T15:36:16.000Z,100343
2018-07-01T15:37:16.000Z,100338
2018-07-01T15:38:16.000Z,100339
2018-07-01T15:40:16.000Z,100332
2018-07-01T15:41:16.000Z,100334
2018-07-01T15:43:16.000Z,100331
2018-07-01T15:45:16.000Z,100330
2018-07-01T15:47:16.000Z,100328
2018-07-01T15:49:16.000Z,100322
2018-07-01T15:51:16.000Z,100326
2018-07-01T15:52:16.000Z,100325
2018-07-01T15:54:16.000Z,100327
2018-07-01T15:56:16.000Z,100332
2018-07-01T15:58:16.000Z,100321
2018-07-01T15:59:16.000Z,100322
2018-07-01T16:00:16.000Z,100322
2018-07-01T16:02:01.000Z,100326
2018-07-01T16:03:16.000Z,100317
2018-07-01T16:04:16.000Z,100314
2018-07-01T16:06:01.000Z,100314
2018-07-01T16:07:16.000Z,100306
2018-07-01T16:09:16.000Z,100312
2018-07-01T16:11:16.000Z,100320
2018-07-01T16:12:16.000Z,100310
2018-07-01T16:14:16.000Z,100316
2018-07-01T16:16:16.000Z,100327
2018-07-01T16:18:01.000Z,100313
2018-07-01T16:19:16.000Z,100311
2018-07-01T16:21:16.000Z,100305
2018-07-01T16:23:16.000Z,100314
2018-07-01T16:24:16.000Z,100311
2018-07-01T16:26:16.000Z,100312
2018-07-01T16:28:16.000Z,100302
2018-07-01T16:30:16.000Z,100315
2018-07-01T16:32:16.000Z,100322
2018-07-01T16:34:16.000Z,100315
2018-07-01T16:39:17.000Z,100312
2018-07-01T16:40:47.000Z,100326
2018-07-01T16:41:47.000Z,100325
2018-07-01T16:43:47.000Z,100316
2018-07-01T16:45:47.000Z,100311
2018-07-01T16:46:48.000Z,100311
2018-07-01T16:48:47.000Z,100307
2018-07-01T16:50:47.000Z,100308
2018-07-01T16:51:48.000Z,100313
2018-07-01T16:53:47.000Z,100310
2018-07-01T16:55:32.000Z,100316
2018-07-01T16:56:47.000Z,100332
2018-07-01T16:58:17.000Z,100313
2018-07-01T16:59:48.000Z,100321
2018-07-01T17:01:47.000Z,100314
2018-07-01T17:03:47.000Z,100313
2018-07-01T17:05:47.000Z,100320
2018-07-01T17:07:17.000Z,100322
2018-07-01T17:08:47.000Z,100319
2018-07-01T17:09:47.000Z,100327
2018-07-01T17:11:47.000Z,100324
2018-07-01T17:13:47.000Z,100325
2018-07-01T17:15:47.000Z,100323
2018-07-01T17:16:47.000Z,100324
2018-07-01T17:18:47.000Z,100327
2018-07-01T17:20:32.000Z,100325
2018-07-01T17:21:47.000Z,100317
2018-07-01T17:23:47.000Z,100322
2018-07-01T17:25:32.000Z,100316
2018-07-01T17:26:47.000Z,100319
2018-07-01T17:28:47.000Z,100319
2018-07-01T17:30:32.000Z,100323
2018-07-01T17:31:47.000Z,100327
2018-07-01T17:33:32.000Z,100326
2018-07-01T17:34:47.000Z,100320
2018-07-01T17:36:47.000Z,100322
2018-07-01T17:37:47.000Z,100321
2018-07-01T17:38:47.000Z,100323
2018-07-01T17:40:47.000Z,100320
2018-07-01T17:41:47.000Z,100322
2018-07-01T17:43:47.000Z,100315
2018-07-01T17:45:47.000Z,100318
2018-07-01T17:46:47.000Z,100318
2018-07-01T17:48:17.000Z,100321
2018-07-01T17:49:47.000Z,100320
2018-07-01T17:51:47.000Z,100315
2018-07-01T17:53:47.000Z,100320
2018-07-01T17:55:47.000Z,100320
2018-07-01T17:57:47.000Z,100319
2018-07-01T17:58:47.000Z,100321
2018-07-01T18:00:47.000Z,100315
2018-07-01T18:02:47.000Z,100320
2018-07-01T18:04:47.000Z,100319
2018-07-01T18:06:47.000Z,100319
2018-07-01T18:07:47.000Z,100317
2018-07-01T18:08:47.000Z,100317
2018-07-01T18:10:47.000Z,100320
2018-07-01T18:12:47.000Z,100325
2018-07-01T18:13:47.000Z,100319
2018-07-01T18:15:47.000Z,100327
2018-07-01T18:17:32.000Z,100320
2018-07-01T18:18:47.000Z,100319
2018-07-01T18:20:47.000Z,100317
2018-07-01T18:22:47.000Z,100328
2018-07-01T18:23:47.000Z,100326
2018-07-01T18:25:47.000Z,100324
2018-07-01T18:26:47.000Z,100321
2018-07-01T18:27:47.000Z,100315
2018-07-01T18:29:47.000Z,100318
2018-07-01T18:31:47.000Z,100326
2018-07-01T18:32:47.000Z,100320
2018-07-01T18:34:47.000Z,100320
2018-07-01T18:36:47.000Z,100326
2018-07-01T18:38:32.000Z,100326
2018-07-01T18:39:47.000Z,100325
2018-07-01T18:41:47.000Z,100328
2018-07-01T18:43:47.000Z,100324
2018-07-01T18:45:47.000Z,100327
2018-07-01T18:46:47.000Z,100329
2018-07-01T18:48:47.000Z,100327
2018-07-01T18:49:47.000Z,100329
2018-07-01T18:51:32.000Z,100322
2018-07-01T18:52:47.000Z,100334
2018-07-01T18:54:47.000Z,100334
2018-07-01T18:55:47.000Z,100338
2018-07-01T18:57:47.000Z,100331
2018-07-01T18:59:47.000Z,100330
2018-07-01T19:00:47.000Z,100328
2018-07-01T19:02:47.000Z,100332
2018-07-01T19:04:47.000Z,100331
2018-07-01T19:06:47.000Z,100327
2018-07-01T19:07:47.000Z,100330
2018-07-01T19:08:47.000Z,100331
2018-07-01T19:10:47.000Z,100324
2018-07-01T19:11:47.000Z,100328
2018-07-01T19:13:47.000Z,100333
2018-07-01T19:14:47.000Z,100331
2018-07-01T19:16:47.000Z,100333
2018-07-01T19:18:47.000Z,100334
2018-07-01T19:20:47.000Z,100336
2018-07-01T19:22:32.000Z,100332
2018-07-01T19:23:32.000Z,100338
2018-07-01T19:24:47.000Z,100338
2018-07-01T19:25:47.000Z,100336
2018-07-01T19:27:47.000Z,100351
2018-07-01T19:29:47.000Z,100346
2018-07-01T19:30:47.000Z,100353
2018-07-01T19:32:32.000Z,100355
2018-07-01T19:33:47.000Z,100354
2018-07-01T19:35:47.000Z,100351
2018-07-01T19:37:47.000Z,100354
2018-07-01T19:38:47.000Z,100353
2018-07-01T19:39:47.000Z,100352
2018-07-01T19:41:47.000Z,100360
2018-07-01T19:42:47.000Z,100360
2018-07-01T19:44:32.000Z,100361
2018-07-01T19:45:47.000Z,100361
2018-07-01T19:46:47.000Z,100365
2018-07-01T19:48:47.000Z,100366
2018-07-01T19:50:32.000Z,100370
2018-07-01T19:51:47.000Z,100370
2018-07-01T19:53:47.000Z,100372
2018-07-01T19:55:47.000Z,100382
2018-07-01T19:57:47.000Z,100377
2018-07-01T19:59:47.000Z,100382
2018-07-01T20:01:47.000Z,100385
2018-07-01T20:02:47.000Z,100387
2018-07-01T20:03:47.000Z,100387
2018-07-01T20:05:47.000Z,100381
2018-07-01T20:07:47.000Z,100385
2018-07-01T20:09:47.000Z,100383
2018-07-01T20:10:47.000Z,100384
2018-07-01T20:12:47.000Z,100381
2018-07-01T20:14:47.000Z,100380
2018-07-01T20:18:47.000Z,100383
2018-07-01T20:20:33.000Z,100386
2018-07-01T20:22:33.000Z,100386
2018-07-01T20:24:18.000Z,100389
2018-07-01T20:25:33.000Z,100393
2018-07-01T20:26:33.000Z,100394
2018-07-01T20:28:18.000Z,100389
2018-07-01T20:29:33.000Z,100386
2018-07-01T20:30:33.000Z,100392
2018-07-01T20:32:33.000Z,100402
2018-07-01T20:34:33.000Z,100405